sensor_id;sensor_type;location;lat;lon;timestamp;P1;durP1;ratioP1;P2;durP2;ratioP2
77544;SDS011;66672;50.328;7.610;2023-03-03T00:01:59;9.17;;;4.67;;
77544;SDS011;66672;50.328;7.610;2023-03-03T00:04:25;12.67;;;5.17;;
77544;SDS011;66672;50.328;7.610;2023-03-03T00:06:50;12.27;;;5.77;;
77544;SDS011;66672;50.328;7.610;2023-03-03T00:09:15;11.13;;;5.10;;
77544;SDS011;66672;50.328;7.610;2023-03-03T00:11:41;12.93;;;5.57;;
77544;SDS011;66672;50.328;7.610;2023-03-03T00:14:16;13.93;;;5.90;;
77544;SDS011;66672;50.328;7.610;2023-03-03T00:17:13;13.03;;;5.90;;
77544;SDS011;66672;50.328;7.610;2023-03-03T00:19:45;10.37;;;5.30;;
77544;SDS011;66672;50.328;7.610;2023-03-03T00:22:30;13.80;;;5.57;;
77544;SDS011;66672;50.328;7.610;2023-03-03T00:25:14;11.77;;;5.90;;
77544;SDS011;66672;50.328;7.610;2023-03-03T00:27:52;12.13;;;6.33;;
77544;SDS011;66672;50.328;7.610;2023-03-03T00:30:24;13.37;;;6.03;;
77544;SDS011;66672;50.328;7.610;2023-03-03T00:32:51;12.97;;;5.77;;
77544;SDS011;66672;50.328;7.610;2023-03-03T00:35:35;12.27;;;6.10;;
77544;SDS011;66672;50.328;7.610;2023-03-03T00:38:13;11.30;;;5.23;;
77544;SDS011;66672;50.328;7.610;2023-03-03T00:40:41;11.20;;;6.00;;
77544;SDS011;66672;50.328;7.610;2023-03-03T00:43:20;11.83;;;5.10;;
77544;SDS011;66672;50.328;7.610;2023-03-03T00:45:51;13.03;;;6.10;;
77544;SDS011;66672;50.328;7.610;2023-03-03T00:50:54;11.70;;;5.90;;
77544;SDS011;66672;50.328;7.610;2023-03-03T00:53:24;11.00;;;5.10;;
77544;SDS011;66672;50.328;7.610;2023-03-03T00:55:51;13.03;;;5.57;;
77544;SDS011;66672;50.328;7.610;2023-03-03T00:58:17;12.00;;;5.90;;
77544;SDS011;66672;50.328;7.610;2023-03-03T01:00:45;11.13;;;5.63;;
77544;SDS011;66672;50.328;7.610;2023-03-03T01:03:14;12.77;;;5.77;;
77544;SDS011;66672;50.328;7.610;2023-03-03T01:05:41;15.63;;;6.40;;
77544;SDS011;66672;50.328;7.610;2023-03-03T01:08:07;13.30;;;5.50;;
77544;SDS011;66672;50.328;7.610;2023-03-03T01:10:33;12.70;;;6.30;;
77544;SDS011;66672;50.328;7.610;2023-03-03T01:13:03;12.27;;;5.80;;
77544;SDS011;66672;50.328;7.610;2023-03-03T01:15:30;14.40;;;6.00;;
77544;SDS011;66672;50.328;7.610;2023-03-03T01:17:55;13.00;;;6.50;;
77544;SDS011;66672;50.328;7.610;2023-03-03T01:20:21;14.30;;;6.60;;
77544;SDS011;66672;50.328;7.610;2023-03-03T01:22:46;12.97;;;6.03;;
77544;SDS011;66672;50.328;7.610;2023-03-03T01:25:12;15.40;;;6.87;;
77544;SDS011;66672;50.328;7.610;2023-03-03T01:27:37;14.07;;;6.20;;
77544;SDS011;66672;50.328;7.610;2023-03-03T01:30:04;16.10;;;5.80;;
77544;SDS011;66672;50.328;7.610;2023-03-03T01:32:30;12.10;;;6.53;;
77544;SDS011;66672;50.328;7.610;2023-03-03T01:34:55;13.37;;;6.70;;
77544;SDS011;66672;50.328;7.610;2023-03-03T01:37:21;14.07;;;7.20;;
77544;SDS011;66672;50.328;7.610;2023-03-03T01:39:47;13.50;;;6.30;;
77544;SDS011;66672;50.328;7.610;2023-03-03T01:42:14;12.03;;;6.20;;
77544;SDS011;66672;50.328;7.610;2023-03-03T01:44:39;9.90;;;5.70;;
77544;SDS011;66672;50.328;7.610;2023-03-03T01:49:41;14.43;;;6.37;;
77544;SDS011;66672;50.328;7.610;2023-03-03T01:52:17;12.83;;;6.37;;
77544;SDS011;66672;50.328;7.610;2023-03-03T01:54:46;13.00;;;6.40;;
77544;SDS011;66672;50.328;7.610;2023-03-03T01:57:19;15.13;;;5.80;;
77544;SDS011;66672;50.328;7.610;2023-03-03T01:59:49;15.53;;;7.47;;
77544;SDS011;66672;50.328;7.610;2023-03-03T02:02:16;14.57;;;7.00;;
77544;SDS011;66672;50.328;7.610;2023-03-03T02:04:42;12.97;;;6.63;;
77544;SDS011;66672;50.328;7.610;2023-03-03T02:07:09;15.60;;;6.37;;
77544;SDS011;66672;50.328;7.610;2023-03-03T02:09:58;12.60;;;6.10;;
77544;SDS011;66672;50.328;7.610;2023-03-03T02:17:57;13.32;;;6.93;;
77544;SDS011;66672;50.328;7.610;2023-03-03T02:23:03;12.63;;;6.90;;
77544;SDS011;66672;50.328;7.610;2023-03-03T02:28:22;13.67;;;6.43;;
77544;SDS011;66672;50.328;7.610;2023-03-03T02:30:52;14.90;;;7.07;;
77544;SDS011;66672;50.328;7.610;2023-03-03T02:33:19;15.83;;;7.40;;
77544;SDS011;66672;50.328;7.610;2023-03-03T02:35:44;16.63;;;7.60;;
77544;SDS011;66672;50.328;7.610;2023-03-03T02:43:37;14.40;;;7.75;;
77544;SDS011;66672;50.328;7.610;2023-03-03T02:46:09;14.20;;;7.07;;
77544;SDS011;66672;50.328;7.610;2023-03-03T02:48:34;14.23;;;7.30;;
77544;SDS011;66672;50.328;7.610;2023-03-03T02:51:00;13.77;;;7.47;;
77544;SDS011;66672;50.328;7.610;2023-03-03T02:53:25;17.03;;;7.90;;
77544;SDS011;66672;50.328;7.610;2023-03-03T02:55:50;13.40;;;6.97;;
77544;SDS011;66672;50.328;7.610;2023-03-03T02:58:16;15.03;;;7.43;;
77544;SDS011;66672;50.328;7.610;2023-03-03T03:00:41;12.77;;;7.67;;
77544;SDS011;66672;50.328;7.610;2023-03-03T03:03:06;16.40;;;7.30;;
77544;SDS011;66672;50.328;7.610;2023-03-03T03:05:32;17.30;;;7.10;;
77544;SDS011;66672;50.328;7.610;2023-03-03T03:07:57;14.03;;;7.47;;
77544;SDS011;66672;50.328;7.610;2023-03-03T03:10:22;13.93;;;6.93;;
77544;SDS011;66672;50.328;7.610;2023-03-03T03:12:47;15.03;;;7.00;;
77544;SDS011;66672;50.328;7.610;2023-03-03T03:15:13;15.10;;;7.47;;
77544;SDS011;66672;50.328;7.610;2023-03-03T03:17:39;14.67;;;7.87;;
77544;SDS011;66672;50.328;7.610;2023-03-03T03:20:05;16.20;;;7.93;;
77544;SDS011;66672;50.328;7.610;2023-03-03T03:22:31;13.63;;;7.27;;
77544;SDS011;66672;50.328;7.610;2023-03-03T03:24:56;13.47;;;7.03;;
77544;SDS011;66672;50.328;7.610;2023-03-03T03:27:21;15.33;;;7.27;;
77544;SDS011;66672;50.328;7.610;2023-03-03T03:29:47;14.70;;;7.00;;
77544;SDS011;66672;50.328;7.610;2023-03-03T03:32:12;15.00;;;7.13;;
77544;SDS011;66672;50.328;7.610;2023-03-03T03:34:38;16.97;;;7.87;;
77544;SDS011;66672;50.328;7.610;2023-03-03T03:37:03;17.03;;;8.10;;
77544;SDS011;66672;50.328;7.610;2023-03-03T03:39:28;14.70;;;8.10;;
77544;SDS011;66672;50.328;7.610;2023-03-03T03:41:54;16.80;;;7.70;;
77544;SDS011;66672;50.328;7.610;2023-03-03T03:44:19;17.90;;;7.77;;
77544;SDS011;66672;50.328;7.610;2023-03-03T03:46:44;15.00;;;7.80;;
77544;SDS011;66672;50.328;7.610;2023-03-03T03:49:09;19.00;;;8.70;;
77544;SDS011;66672;50.328;7.610;2023-03-03T03:51:35;16.93;;;8.83;;
77544;SDS011;66672;50.328;7.610;2023-03-03T03:54:02;16.07;;;8.00;;
77544;SDS011;66672;50.328;7.610;2023-03-03T03:56:27;14.10;;;8.17;;
77544;SDS011;66672;50.328;7.610;2023-03-03T03:58:53;17.87;;;9.13;;
77544;SDS011;66672;50.328;7.610;2023-03-03T04:01:18;15.67;;;7.80;;
77544;SDS011;66672;50.328;7.610;2023-03-03T04:03:43;18.57;;;9.30;;
77544;SDS011;66672;50.328;7.610;2023-03-03T04:06:08;22.83;;;9.30;;
77544;SDS011;66672;50.328;7.610;2023-03-03T04:08:34;19.17;;;8.80;;
77544;SDS011;66672;50.328;7.610;2023-03-03T04:10:59;17.70;;;8.87;;
77544;SDS011;66672;50.328;7.610;2023-03-03T04:13:24;19.07;;;10.20;;
77544;SDS011;66672;50.328;7.610;2023-03-03T04:15:52;20.73;;;9.47;;
77544;SDS011;66672;50.328;7.610;2023-03-03T04:18:18;17.70;;;8.40;;
77544;SDS011;66672;50.328;7.610;2023-03-03T04:20:43;20.27;;;9.30;;
77544;SDS011;66672;50.328;7.610;2023-03-03T04:23:08;18.00;;;8.83;;
77544;SDS011;66672;50.328;7.610;2023-03-03T04:25:34;17.83;;;8.43;;
77544;SDS011;66672;50.328;7.610;2023-03-03T04:27:59;18.70;;;9.43;;
77544;SDS011;66672;50.328;7.610;2023-03-03T04:30:25;18.80;;;9.70;;
77544;SDS011;66672;50.328;7.610;2023-03-03T04:32:50;17.70;;;9.90;;
77544;SDS011;66672;50.328;7.610;2023-03-03T04:35:17;16.43;;;9.20;;
77544;SDS011;66672;50.328;7.610;2023-03-03T04:37:42;20.30;;;9.50;;
77544;SDS011;66672;50.328;7.610;2023-03-03T04:40:08;23.47;;;10.70;;
77544;SDS011;66672;50.328;7.610;2023-03-03T04:42:34;18.00;;;10.57;;
77544;SDS011;66672;50.328;7.610;2023-03-03T04:44:59;16.80;;;10.63;;
77544;SDS011;66672;50.328;7.610;2023-03-03T04:47:25;19.80;;;10.77;;
77544;SDS011;66672;50.328;7.610;2023-03-03T04:49:50;24.40;;;10.90;;
77544;SDS011;66672;50.328;7.610;2023-03-03T04:52:16;23.97;;;12.80;;
77544;SDS011;66672;50.328;7.610;2023-03-03T04:54:41;21.13;;;10.90;;
77544;SDS011;66672;50.328;7.610;2023-03-03T04:57:06;24.00;;;11.77;;
77544;SDS011;66672;50.328;7.610;2023-03-03T04:59:33;22.77;;;11.97;;
77544;SDS011;66672;50.328;7.610;2023-03-03T05:01:59;28.57;;;12.30;;
77544;SDS011;66672;50.328;7.610;2023-03-03T05:04:24;33.47;;;15.57;;
77544;SDS011;66672;50.328;7.610;2023-03-03T05:06:50;30.07;;;13.47;;
77544;SDS011;66672;50.328;7.610;2023-03-03T05:09:15;30.23;;;14.23;;
77544;SDS011;66672;50.328;7.610;2023-03-03T05:11:41;27.77;;;14.07;;
77544;SDS011;66672;50.328;7.610;2023-03-03T05:14:06;25.20;;;13.30;;
77544;SDS011;66672;50.328;7.610;2023-03-03T05:16:32;25.73;;;13.00;;
77544;SDS011;66672;50.328;7.610;2023-03-03T05:18:57;27.90;;;13.10;;
77544;SDS011;66672;50.328;7.610;2023-03-03T05:21:23;31.30;;;15.53;;
77544;SDS011;66672;50.328;7.610;2023-03-03T05:23:48;28.60;;;14.07;;
77544;SDS011;66672;50.328;7.610;2023-03-03T05:26:14;39.23;;;15.90;;
77544;SDS011;66672;50.328;7.610;2023-03-03T05:28:39;37.77;;;17.77;;
77544;SDS011;66672;50.328;7.610;2023-03-03T05:31:04;36.37;;;17.07;;
77544;SDS011;66672;50.328;7.610;2023-03-03T05:33:30;40.43;;;17.53;;
77544;SDS011;66672;50.328;7.610;2023-03-03T05:35:55;38.20;;;19.53;;
77544;SDS011;66672;50.328;7.610;2023-03-03T05:38:22;40.90;;;18.23;;
77544;SDS011;66672;50.328;7.610;2023-03-03T05:40:48;38.30;;;16.67;;
77544;SDS011;66672;50.328;7.610;2023-03-03T05:43:14;43.50;;;19.40;;
77544;SDS011;66672;50.328;7.610;2023-03-03T05:45:39;42.37;;;19.37;;
77544;SDS011;66672;50.328;7.610;2023-03-03T05:48:04;44.93;;;19.73;;
77544;SDS011;66672;50.328;7.610;2023-03-03T05:50:30;50.03;;;20.40;;
77544;SDS011;66672;50.328;7.610;2023-03-03T05:52:56;40.13;;;19.13;;
77544;SDS011;66672;50.328;7.610;2023-03-03T05:55:21;49.83;;;22.03;;
77544;SDS011;66672;50.328;7.610;2023-03-03T05:57:47;48.00;;;21.30;;
77544;SDS011;66672;50.328;7.610;2023-03-03T06:00:12;51.53;;;22.47;;
77544;SDS011;66672;50.328;7.610;2023-03-03T06:02:39;52.90;;;22.07;;
77544;SDS011;66672;50.328;7.610;2023-03-03T06:05:04;51.20;;;21.40;;
77544;SDS011;66672;50.328;7.610;2023-03-03T06:07:30;52.23;;;22.13;;
77544;SDS011;66672;50.328;7.610;2023-03-03T06:09:56;52.47;;;22.77;;
77544;SDS011;66672;50.328;7.610;2023-03-03T06:12:21;44.27;;;20.57;;
77544;SDS011;66672;50.328;7.610;2023-03-03T06:14:46;51.80;;;21.70;;
77544;SDS011;66672;50.328;7.610;2023-03-03T06:17:11;43.20;;;20.67;;
77544;SDS011;66672;50.328;7.610;2023-03-03T06:19:37;48.60;;;21.93;;
77544;SDS011;66672;50.328;7.610;2023-03-03T06:22:02;54.53;;;22.10;;
77544;SDS011;66672;50.328;7.610;2023-03-03T06:24:28;56.33;;;24.10;;
77544;SDS011;66672;50.328;7.610;2023-03-03T06:26:56;51.57;;;22.77;;
77544;SDS011;66672;50.328;7.610;2023-03-03T06:29:22;55.43;;;23.37;;
77544;SDS011;66672;50.328;7.610;2023-03-03T06:31:47;53.77;;;24.37;;
77544;SDS011;66672;50.328;7.610;2023-03-03T06:34:12;49.07;;;23.37;;
77544;SDS011;66672;50.328;7.610;2023-03-03T06:36:37;61.90;;;26.23;;
77544;SDS011;66672;50.328;7.610;2023-03-03T06:39:03;51.20;;;23.73;;
77544;SDS011;66672;50.328;7.610;2023-03-03T06:41:28;58.20;;;21.87;;
77544;SDS011;66672;50.328;7.610;2023-03-03T06:43:54;61.83;;;25.30;;
77544;SDS011;66672;50.328;7.610;2023-03-03T06:46:20;51.43;;;23.30;;
77544;SDS011;66672;50.328;7.610;2023-03-03T06:48:45;57.40;;;23.57;;
77544;SDS011;66672;50.328;7.610;2023-03-03T06:51:16;57.33;;;26.43;;
77544;SDS011;66672;50.328;7.610;2023-03-03T06:53:48;53.10;;;23.17;;
77544;SDS011;66672;50.328;7.610;2023-03-03T06:56:15;54.57;;;25.97;;
77544;SDS011;66672;50.328;7.610;2023-03-03T06:58:42;57.13;;;25.03;;
77544;SDS011;66672;50.328;7.610;2023-03-03T07:01:11;59.50;;;24.87;;
77544;SDS011;66672;50.328;7.610;2023-03-03T07:06:19;55.90;;;22.37;;
77544;SDS011;66672;50.328;7.610;2023-03-03T07:08:47;54.47;;;22.87;;
77544;SDS011;66672;50.328;7.610;2023-03-03T07:11:14;53.50;;;23.00;;
77544;SDS011;66672;50.328;7.610;2023-03-03T07:13:43;51.10;;;23.03;;
77544;SDS011;66672;50.328;7.610;2023-03-03T07:16:12;53.43;;;23.47;;
77544;SDS011;66672;50.328;7.610;2023-03-03T07:18:49;44.93;;;20.63;;
77544;SDS011;66672;50.328;7.610;2023-03-03T07:21:20;49.87;;;22.40;;
77544;SDS011;66672;50.328;7.610;2023-03-03T07:23:49;53.17;;;21.60;;
77544;SDS011;66672;50.328;7.610;2023-03-03T07:26:20;49.03;;;21.17;;
77544;SDS011;66672;50.328;7.610;2023-03-03T07:28:53;47.97;;;19.58;;
77544;SDS011;66672;50.328;7.610;2023-03-03T07:36:58;43.37;;;19.80;;
77544;SDS011;66672;50.328;7.610;2023-03-03T07:39:30;43.80;;;18.80;;
77544;SDS011;66672;50.328;7.610;2023-03-03T07:44:35;46.20;;;19.97;;
77544;SDS011;66672;50.328;7.610;2023-03-03T07:47:17;37.67;;;19.17;;
77544;SDS011;66672;50.328;7.610;2023-03-03T07:49:47;44.93;;;19.20;;
77544;SDS011;66672;50.328;7.610;2023-03-03T07:54:48;40.00;;;17.87;;
77544;SDS011;66672;50.328;7.610;2023-03-03T07:57:21;46.53;;;20.87;;
77544;SDS011;66672;50.328;7.610;2023-03-03T07:59:52;45.33;;;18.47;;
77544;SDS011;66672;50.328;7.610;2023-03-03T08:05:00;43.78;;;19.90;;
77544;SDS011;66672;50.328;7.610;2023-03-03T08:07:27;40.27;;;17.90;;
77544;SDS011;66672;50.328;7.610;2023-03-03T08:09:57;38.87;;;18.33;;
77544;SDS011;66672;50.328;7.610;2023-03-03T08:12:37;36.27;;;17.50;;
77544;SDS011;66672;50.328;7.610;2023-03-03T08:15:20;40.20;;;18.70;;
77544;SDS011;66672;50.328;7.610;2023-03-03T08:17:50;41.75;;;19.58;;
77544;SDS011;66672;50.328;7.610;2023-03-03T08:23:11;37.20;;;18.58;;
77544;SDS011;66672;50.328;7.610;2023-03-03T08:25:37;37.97;;;18.63;;
77544;SDS011;66672;50.328;7.610;2023-03-03T08:28:03;33.30;;;16.97;;
77544;SDS011;66672;50.328;7.610;2023-03-03T08:30:29;36.63;;;17.00;;
77544;SDS011;66672;50.328;7.610;2023-03-03T08:32:55;35.40;;;17.43;;
77544;SDS011;66672;50.328;7.610;2023-03-03T08:35:21;41.70;;;18.07;;
77544;SDS011;66672;50.328;7.610;2023-03-03T08:37:46;37.10;;;18.57;;
77544;SDS011;66672;50.328;7.610;2023-03-03T08:40:12;41.03;;;18.63;;
77544;SDS011;66672;50.328;7.610;2023-03-03T08:42:37;37.30;;;18.30;;
77544;SDS011;66672;50.328;7.610;2023-03-03T08:45:02;39.27;;;18.77;;
77544;SDS011;66672;50.328;7.610;2023-03-03T08:47:28;36.50;;;18.23;;
77544;SDS011;66672;50.328;7.610;2023-03-03T08:49:53;42.83;;;18.70;;
77544;SDS011;66672;50.328;7.610;2023-03-03T08:52:18;36.20;;;16.93;;
77544;SDS011;66672;50.328;7.610;2023-03-03T08:54:44;41.53;;;18.07;;
77544;SDS011;66672;50.328;7.610;2023-03-03T08:57:09;36.00;;;18.10;;
77544;SDS011;66672;50.328;7.610;2023-03-03T08:59:34;37.73;;;17.93;;
77544;SDS011;66672;50.328;7.610;2023-03-03T09:02:03;38.97;;;19.27;;
77544;SDS011;66672;50.328;7.610;2023-03-03T09:04:29;36.87;;;18.30;;
77544;SDS011;66672;50.328;7.610;2023-03-03T09:06:54;34.67;;;16.80;;
77544;SDS011;66672;50.328;7.610;2023-03-03T09:09:20;39.97;;;18.27;;
77544;SDS011;66672;50.328;7.610;2023-03-03T09:11:45;42.00;;;18.77;;
77544;SDS011;66672;50.328;7.610;2023-03-03T09:14:14;34.17;;;17.63;;
77544;SDS011;66672;50.328;7.610;2023-03-03T09:16:51;38.90;;;18.37;;
77544;SDS011;66672;50.328;7.610;2023-03-03T09:19:22;41.37;;;19.17;;
77544;SDS011;66672;50.328;7.610;2023-03-03T09:21:51;42.40;;;19.05;;
77544;SDS011;66672;50.328;7.610;2023-03-03T09:24:28;41.20;;;17.77;;
77544;SDS011;66672;50.328;7.610;2023-03-03T09:26:55;40.60;;;20.33;;
77544;SDS011;66672;50.328;7.610;2023-03-03T09:29:34;41.67;;;17.90;;
77544;SDS011;66672;50.328;7.610;2023-03-03T09:32:16;38.10;;;18.63;;
77544;SDS011;66672;50.328;7.610;2023-03-03T09:34:50;41.37;;;19.27;;
77544;SDS011;66672;50.328;7.610;2023-03-03T09:39:51;40.40;;;19.03;;
77544;SDS011;66672;50.328;7.610;2023-03-03T10:10:44;42.93;;;18.93;;
77544;SDS011;66672;50.328;7.610;2023-03-03T10:16:08;37.85;;;19.33;;
77544;SDS011;66672;50.328;7.610;2023-03-03T10:21:49;41.90;;;21.20;;
77544;SDS011;66672;50.328;7.610;2023-03-03T10:24:27;39.03;;;19.20;;
77544;SDS011;66672;50.328;7.610;2023-03-03T10:34:52;46.50;;;21.03;;
77544;SDS011;66672;50.328;7.610;2023-03-03T10:42:59;44.97;;;18.70;;
77544;SDS011;66672;50.328;7.610;2023-03-03T10:53:36;43.13;;;19.13;;
77544;SDS011;66672;50.328;7.610;2023-03-03T10:56:21;42.13;;;20.00;;
77544;SDS011;66672;50.328;7.610;2023-03-03T11:02:02;43.30;;;20.10;;
77544;SDS011;66672;50.328;7.610;2023-03-03T11:07:43;44.23;;;20.30;;
77544;SDS011;66672;50.328;7.610;2023-03-03T11:10:16;45.17;;;20.33;;
77544;SDS011;66672;50.328;7.610;2023-03-03T11:12:59;43.40;;;20.87;;
77544;SDS011;66672;50.328;7.610;2023-03-03T11:32:44;43.40;;;19.77;;
77544;SDS011;66672;50.328;7.610;2023-03-03T11:38:10;45.30;;;19.03;;
77544;SDS011;66672;50.328;7.610;2023-03-03T11:41:07;40.92;;;18.23;;
77544;SDS011;66672;50.328;7.610;2023-03-03T11:46:15;37.73;;;17.80;;
77544;SDS011;66672;50.328;7.610;2023-03-03T12:11:15;37.47;;;18.50;;
77544;SDS011;66672;50.328;7.610;2023-03-03T12:13:59;35.53;;;18.03;;
77544;SDS011;66672;50.328;7.610;2023-03-03T12:33:51;31.97;;;15.00;;
77544;SDS011;66672;50.328;7.610;2023-03-03T12:46:43;35.10;;;15.77;;
77544;SDS011;66672;50.328;7.610;2023-03-03T12:49:10;39.13;;;18.60;;
77544;SDS011;66672;50.328;7.610;2023-03-03T13:00:14;31.05;;;17.42;;
77544;SDS011;66672;50.328;7.610;2023-03-03T13:02:57;37.07;;;18.17;;
77544;SDS011;66672;50.328;7.610;2023-03-03T13:05:32;34.88;;;17.55;;
77544;SDS011;66672;50.328;7.610;2023-03-03T13:16:42;36.72;;;18.55;;
77544;SDS011;66672;50.328;7.610;2023-03-03T13:19:15;36.53;;;20.42;;
77544;SDS011;66672;50.328;7.610;2023-03-03T13:24:32;33.53;;;18.77;;
77544;SDS011;66672;50.328;7.610;2023-03-03T13:27:13;41.88;;;21.63;;
77544;SDS011;66672;50.328;7.610;2023-03-03T13:32:30;39.45;;;20.58;;
77544;SDS011;66672;50.328;7.610;2023-03-03T13:35:00;39.67;;;20.42;;
77544;SDS011;66672;50.328;7.610;2023-03-03T13:37:44;36.42;;;20.42;;
77544;SDS011;66672;50.328;7.610;2023-03-03T13:48:08;35.35;;;18.55;;
77544;SDS011;66672;50.328;7.610;2023-03-03T13:53:33;38.70;;;21.52;;
77544;SDS011;66672;50.328;7.610;2023-03-03T13:58:58;44.78;;;23.15;;
77544;SDS011;66672;50.328;7.610;2023-03-03T14:07:12;40.28;;;20.30;;
77544;SDS011;66672;50.328;7.610;2023-03-03T14:14:58;39.42;;;21.40;;
77544;SDS011;66672;50.328;7.610;2023-03-03T14:17:33;40.92;;;21.13;;
77544;SDS011;66672;50.328;7.610;2023-03-03T14:22:44;39.55;;;20.35;;
77544;SDS011;66672;50.328;7.610;2023-03-03T14:25:15;37.65;;;19.52;;
77544;SDS011;66672;50.328;7.610;2023-03-03T14:35:33;38.97;;;19.63;;
77544;SDS011;66672;50.328;7.610;2023-03-03T14:38:14;35.72;;;17.75;;
77544;SDS011;66672;50.328;7.610;2023-03-03T14:40:42;41.47;;;21.42;;
77544;SDS011;66672;50.328;7.610;2023-03-03T14:46:45;33.80;;;16.98;;
77544;SDS011;66672;50.328;7.610;2023-03-03T14:48:51;36.92;;;18.58;;
77544;SDS011;66672;50.328;7.610;2023-03-03T14:51:26;41.60;;;19.92;;
77544;SDS011;66672;50.328;7.610;2023-03-03T14:54:05;37.83;;;18.67;;
77544;SDS011;66672;50.328;7.610;2023-03-03T14:56:38;38.20;;;19.87;;
77544;SDS011;66672;50.328;7.610;2023-03-03T14:59:24;39.28;;;21.02;;
77544;SDS011;66672;50.328;7.610;2023-03-03T15:01:59;38.57;;;19.83;;
77544;SDS011;66672;50.328;7.610;2023-03-03T15:04:27;44.30;;;20.77;;
77544;SDS011;66672;50.328;7.610;2023-03-03T15:06:54;42.27;;;21.00;;
77544;SDS011;66672;50.328;7.610;2023-03-03T15:12:04;45.00;;;20.87;;
77544;SDS011;66672;50.328;7.610;2023-03-03T15:14:47;46.87;;;21.47;;
77544;SDS011;66672;50.328;7.610;2023-03-03T15:17:27;45.57;;;20.40;;
77544;SDS011;66672;50.328;7.610;2023-03-03T15:26:12;42.03;;;21.20;;
77544;SDS011;66672;50.328;7.610;2023-03-03T15:36:54;42.97;;;20.67;;
77544;SDS011;66672;50.328;7.610;2023-03-03T15:39:42;41.42;;;19.25;;
77544;SDS011;66672;50.328;7.610;2023-03-03T15:42:17;40.73;;;21.37;;
77544;SDS011;66672;50.328;7.610;2023-03-03T15:47:41;41.13;;;19.23;;
77544;SDS011;66672;50.328;7.610;2023-03-03T15:53:21;44.80;;;19.83;;
77544;SDS011;66672;50.328;7.610;2023-03-03T15:56:13;43.13;;;21.10;;
77544;SDS011;66672;50.328;7.610;2023-03-03T16:01:34;44.67;;;20.27;;
77544;SDS011;66672;50.328;7.610;2023-03-03T16:04:12;39.57;;;19.00;;
77544;SDS011;66672;50.328;7.610;2023-03-03T16:07:02;42.87;;;21.13;;
77544;SDS011;66672;50.328;7.610;2023-03-03T16:12:23;41.23;;;19.30;;
77544;SDS011;66672;50.328;7.610;2023-03-03T16:17:50;40.37;;;18.90;;
77544;SDS011;66672;50.328;7.610;2023-03-03T16:20:32;39.37;;;17.83;;
77544;SDS011;66672;50.328;7.610;2023-03-03T16:30:54;43.40;;;19.57;;
77544;SDS011;66672;50.328;7.610;2023-03-03T16:33:30;42.67;;;19.40;;
77544;SDS011;66672;50.328;7.610;2023-03-03T16:39:01;39.10;;;18.50;;
77544;SDS011;66672;50.328;7.610;2023-03-03T16:44:38;37.53;;;18.60;;
77544;SDS011;66672;50.328;7.610;2023-03-03T16:47:18;39.60;;;19.13;;
77544;SDS011;66672;50.328;7.610;2023-03-03T16:50:01;42.10;;;15.83;;
77544;SDS011;66672;50.328;7.610;2023-03-03T16:52:40;44.33;;;18.97;;
77544;SDS011;66672;50.328;7.610;2023-03-03T16:55:17;46.73;;;18.47;;
77544;SDS011;66672;50.328;7.610;2023-03-03T16:57:52;44.37;;;18.13;;
77544;SDS011;66672;50.328;7.610;2023-03-03T17:00:34;49.30;;;18.47;;
77544;SDS011;66672;50.328;7.610;2023-03-03T17:05:55;47.23;;;18.83;;
77544;SDS011;66672;50.328;7.610;2023-03-03T17:20:07;52.33;;;18.47;;
77544;SDS011;66672;50.328;7.610;2023-03-03T17:25:49;51.17;;;20.00;;
77544;SDS011;66672;50.328;7.610;2023-03-03T17:30:55;50.67;;;19.30;;
77544;SDS011;66672;50.328;7.610;2023-03-03T17:33:43;51.97;;;21.60;;
77544;SDS011;66672;50.328;7.610;2023-03-03T17:36:23;46.00;;;18.90;;
77544;SDS011;66672;50.328;7.610;2023-03-03T17:41:48;50.03;;;19.73;;
77544;SDS011;66672;50.328;7.610;2023-03-03T17:46:54;50.77;;;19.30;;
77544;SDS011;66672;50.328;7.610;2023-03-03T17:52:25;54.90;;;20.97;;
77544;SDS011;66672;50.328;7.610;2023-03-03T17:55:07;51.30;;;20.77;;
77544;SDS011;66672;50.328;7.610;2023-03-03T17:57:52;62.10;;;24.20;;
77544;SDS011;66672;50.328;7.610;2023-03-03T18:08:04;61.80;;;21.27;;
77544;SDS011;66672;50.328;7.610;2023-03-03T18:13:47;61.03;;;23.30;;
77544;SDS011;66672;50.328;7.610;2023-03-03T18:24:38;67.77;;;24.93;;
77544;SDS011;66672;50.328;7.610;2023-03-03T18:30:12;71.87;;;24.00;;
77544;SDS011;66672;50.328;7.610;2023-03-03T18:37:57;72.83;;;24.70;;
77544;SDS011;66672;50.328;7.610;2023-03-03T18:46:04;76.47;;;27.40;;
77544;SDS011;66672;50.328;7.610;2023-03-03T18:48:46;77.60;;;27.70;;
77544;SDS011;66672;50.328;7.610;2023-03-03T19:02:18;72.83;;;28.27;;
77544;SDS011;66672;50.328;7.610;2023-03-03T19:07:29;74.80;;;28.33;;
77544;SDS011;66672;50.328;7.610;2023-03-03T19:23:18;86.93;;;30.47;;
77544;SDS011;66672;50.328;7.610;2023-03-03T19:28:46;78.17;;;29.43;;
77544;SDS011;66672;50.328;7.610;2023-03-03T19:31:26;84.90;;;28.63;;
77544;SDS011;66672;50.328;7.610;2023-03-03T19:34:48;76.30;;;29.30;;
77544;SDS011;66672;50.328;7.610;2023-03-03T19:37:00;84.00;;;28.50;;
77544;SDS011;66672;50.328;7.610;2023-03-03T19:39:36;80.07;;;29.20;;
77544;SDS011;66672;50.328;7.610;2023-03-03T19:42:13;79.73;;;30.40;;
77544;SDS011;66672;50.328;7.610;2023-03-03T19:45:01;80.37;;;28.17;;
77544;SDS011;66672;50.328;7.610;2023-03-03T19:52:59;57.87;;;21.37;;
77544;SDS011;66672;50.328;7.610;2023-03-03T19:58:11;83.50;;;29.87;;
77544;SDS011;66672;50.328;7.610;2023-03-03T20:01:40;82.33;;;30.47;;
77544;SDS011;66672;50.328;7.610;2023-03-03T20:03:53;88.23;;;30.27;;
77544;SDS011;66672;50.328;7.610;2023-03-03T20:16:57;97.80;;;33.60;;
77544;SDS011;66672;50.328;7.610;2023-03-03T20:22:39;92.40;;;29.90;;
77544;SDS011;66672;50.328;7.610;2023-03-03T20:28:30;82.17;;;31.43;;
77544;SDS011;66672;50.328;7.610;2023-03-03T20:31:36;83.60;;;29.40;;
77544;SDS011;66672;50.328;7.610;2023-03-03T20:34:08;84.57;;;29.53;;
77544;SDS011;66672;50.328;7.610;2023-03-03T20:57:29;84.87;;;30.97;;
77544;SDS011;66672;50.328;7.610;2023-03-03T21:05:19;88.53;;;30.83;;
77544;SDS011;66672;50.328;7.610;2023-03-03T21:07:54;96.83;;;31.50;;
77544;SDS011;66672;50.328;7.610;2023-03-03T21:10:25;88.03;;;33.33;;
77544;SDS011;66672;50.328;7.610;2023-03-03T21:12:53;91.13;;;32.23;;
77544;SDS011;66672;50.328;7.610;2023-03-03T21:15:27;103.17;;;34.13;;
77544;SDS011;66672;50.328;7.610;2023-03-03T21:17:55;87.90;;;29.53;;
77544;SDS011;66672;50.328;7.610;2023-03-03T21:20:32;92.17;;;31.30;;
77544;SDS011;66672;50.328;7.610;2023-03-03T21:23:00;87.60;;;30.57;;
77544;SDS011;66672;50.328;7.610;2023-03-03T21:33:55;94.20;;;32.50;;
77544;SDS011;66672;50.328;7.610;2023-03-03T21:36:43;88.73;;;29.67;;
77544;SDS011;66672;50.328;7.610;2023-03-03T21:39:23;85.50;;;31.83;;
77544;SDS011;66672;50.328;7.610;2023-03-03T21:41:53;88.30;;;31.03;;
77544;SDS011;66672;50.328;7.610;2023-03-03T21:47:09;89.70;;;30.50;;
77544;SDS011;66672;50.328;7.610;2023-03-03T21:49:40;93.60;;;30.63;;
77544;SDS011;66672;50.328;7.610;2023-03-03T21:52:06;97.73;;;33.00;;
77544;SDS011;66672;50.328;7.610;2023-03-03T21:54:32;100.80;;;36.37;;
77544;SDS011;66672;50.328;7.610;2023-03-03T21:56:58;93.90;;;32.37;;
77544;SDS011;66672;50.328;7.610;2023-03-03T21:59:23;87.90;;;30.70;;
77544;SDS011;66672;50.328;7.610;2023-03-03T22:01:48;86.77;;;31.23;;
77544;SDS011;66672;50.328;7.610;2023-03-03T22:04:14;99.80;;;32.77;;